createdAt,value
2018-01-25T00:02:23.721Z,3.40
2018-01-25T00:04:50.123Z,3.20
2018-01-25T00:07:17.302Z,3.40
2018-01-25T00:09:43.685Z,3.40
2018-01-25T00:12:10.791Z,3.10
2018-01-25T00:14:37.165Z,3.10
2018-01-25T00:17:05.030Z,3.40
2018-01-25T00:19:32.897Z,3.50
2018-01-25T00:22:00.039Z,3.70
2018-01-25T00:24:26.493Z,3.70
2018-01-25T00:26:53.630Z,4.00
2018-01-25T00:29:20.028Z,4.00
2018-01-25T00:31:46.499Z,3.80
2018-01-25T00:34:14.358Z,3.60
2018-01-25T00:36:41.508Z,3.80
2018-01-25T00:39:07.966Z,3.80
2018-01-25T00:41:34.402Z,3.80
2018-01-25T00:44:01.554Z,3.90
2018-01-25T00:46:28.014Z,3.80
2018-01-25T00:48:54.441Z,3.70
2018-01-25T00:51:20.870Z,3.80
2018-01-25T00:53:47.251Z,3.90
2018-01-25T00:56:13.641Z,3.90
2018-01-25T00:58:40.013Z,3.70
2018-01-25T01:01:06.396Z,3.50
2018-01-25T01:03:32.875Z,3.60
2018-01-25T01:05:59.270Z,3.70
2018-01-25T01:08:25.654Z,3.80
2018-01-25T01:10:52.026Z,3.90
2018-01-25T01:13:18.589Z,4.00
2018-01-25T01:15:44.976Z,3.90
2018-01-25T01:18:12.090Z,3.80
2018-01-25T01:20:38.485Z,3.80
2018-01-25T01:23:04.887Z,3.80
2018-01-25T01:25:31.998Z,3.60
2018-01-25T01:27:58.374Z,3.50
2018-01-25T01:30:24.826Z,2.80
2018-01-25T01:32:51.199Z,2.90
2018-01-25T01:35:17.567Z,3.20
2018-01-25T01:37:43.988Z,3.50
2018-01-25T01:40:11.146Z,3.80
2018-01-25T01:42:37.529Z,3.80
2018-01-25T01:45:03.898Z,3.90
2018-01-25T01:47:31.030Z,3.80
2018-01-25T01:49:57.406Z,3.80
2018-01-25T01:52:23.771Z,3.60
2018-01-25T01:54:50.178Z,3.20
2018-01-25T01:57:16.586Z,3.30
2018-01-25T01:59:42.973Z,3.50
2018-01-25T02:02:09.406Z,3.80
2018-01-25T02:04:35.847Z,3.80
2018-01-25T02:07:02.241Z,3.80
2018-01-25T02:09:28.651Z,3.70
2018-01-25T02:11:55.768Z,3.20
2018-01-25T02:14:22.160Z,3.20
2018-01-25T02:16:48.521Z,3.30
2018-01-25T02:19:14.914Z,3.50
2018-01-25T02:21:41.291Z,3.10
2018-01-25T02:24:07.730Z,3.00
2018-01-25T02:26:34.885Z,3.50
2018-01-25T02:29:02.026Z,3.50
2018-01-25T02:31:29.158Z,3.30
2018-01-25T02:33:55.565Z,3.30
2018-01-25T02:36:21.950Z,3.60
2018-01-25T02:38:49.801Z,3.50
2018-01-25T02:41:17.668Z,3.80
2018-01-25T02:43:44.101Z,3.70
2018-01-25T02:46:12.070Z,4.00
2018-01-25T02:48:39.224Z,4.00
2018-01-25T02:51:05.587Z,3.90
2018-01-25T02:53:31.970Z,3.90
2018-01-25T02:55:58.354Z,3.60
2018-01-25T02:58:24.737Z,3.60
2018-01-25T03:00:51.131Z,3.60
2018-01-25T03:03:17.525Z,3.70
2018-01-25T03:05:44.629Z,3.70
2018-01-25T03:08:11.028Z,3.70
2018-01-25T03:10:37.410Z,3.80
2018-01-25T03:13:03.805Z,3.70
2018-01-25T03:15:30.179Z,3.70
2018-01-25T03:17:56.556Z,3.50
2018-01-25T03:20:22.948Z,3.20
2018-01-25T03:22:49.341Z,2.90
2018-01-25T03:25:15.727Z,2.70
2018-01-25T03:27:42.859Z,3.00
2018-01-25T03:30:09.252Z,3.00
2018-01-25T03:32:35.654Z,3.10
2018-01-25T03:35:02.813Z,3.30
2018-01-25T03:37:29.923Z,3.00
2018-01-25T03:39:57.803Z,2.90
2018-01-25T03:42:24.235Z,2.90
2018-01-25T03:44:51.378Z,2.80
2018-01-25T03:47:17.797Z,2.80
2018-01-25T03:49:44.978Z,2.90
2018-01-25T03:52:12.086Z,3.00
2018-01-25T03:54:38.465Z,3.00
2018-01-25T03:57:05.620Z,3.50
2018-01-25T03:59:31.994Z,3.50
2018-01-25T04:01:58.384Z,3.50
2018-01-25T04:04:24.773Z,3.60
2018-01-25T04:06:52.645Z,3.10
2018-01-25T04:09:19.784Z,3.40
2018-01-25T04:11:46.169Z,3.40
2018-01-25T04:14:12.568Z,3.40
2018-01-25T04:16:38.960Z,3.50
2018-01-25T04:19:05.334Z,3.20
2018-01-25T04:21:32.476Z,3.70
2018-01-25T04:23:58.846Z,3.70
2018-01-25T04:26:25.303Z,3.90
2018-01-25T04:28:51.679Z,3.80
2018-01-25T04:31:18.047Z,3.90
2018-01-25T04:33:44.439Z,4.00
2018-01-25T04:36:10.823Z,4.10
2018-01-25T04:38:37.210Z,4.00
2018-01-25T04:41:04.342Z,3.90
2018-01-25T04:43:30.752Z,3.90
2018-01-25T04:45:57.146Z,3.30
2018-01-25T04:48:23.561Z,3.50
2018-01-25T04:50:50.746Z,3.90
2018-01-25T04:53:17.111Z,3.90
2018-01-25T04:55:43.556Z,3.90
2018-01-25T04:58:09.926Z,3.70
2018-01-25T05:00:36.363Z,3.70
2018-01-25T05:03:02.763Z,3.80
2018-01-25T05:05:29.878Z,3.90
2018-01-25T05:07:56.256Z,3.80
2018-01-25T05:10:23.386Z,3.90
2018-01-25T05:12:49.793Z,3.90
2018-01-25T05:15:16.177Z,3.90
2018-01-25T05:17:46.379Z,4.10
2018-01-25T05:20:12.794Z,4.10
2018-01-25T05:22:39.205Z,4.10
2018-01-25T05:25:05.578Z,4.20
2018-01-25T05:27:32.014Z,4.10
2018-01-25T05:29:59.132Z,3.60
2018-01-25T05:32:25.531Z,3.60
2018-01-25T05:34:51.976Z,3.30
2018-01-25T05:37:18.341Z,3.30
2018-01-25T05:39:44.758Z,3.30
2018-01-25T05:42:11.114Z,3.50
2018-01-25T05:44:37.498Z,3.40
2018-01-25T05:47:03.877Z,3.20
2018-01-25T05:49:30.249Z,3.30
2018-01-25T05:51:56.669Z,3.40
2018-01-25T05:54:23.068Z,3.30
2018-01-25T05:56:49.460Z,3.10
2018-01-25T05:59:15.895Z,3.20
2018-01-25T06:01:42.286Z,3.20
2018-01-25T06:04:09.423Z,3.00
2018-01-25T06:06:36.542Z,3.10
2018-01-25T06:09:03.007Z,3.10
2018-01-25T06:11:29.384Z,3.50
2018-01-25T06:13:55.792Z,3.40
2018-01-25T06:16:22.901Z,3.00
2018-01-25T06:18:49.302Z,2.90
2018-01-25T06:21:15.665Z,2.70
2018-01-25T06:23:42.122Z,2.50
2018-01-25T06:26:09.237Z,2.40
2018-01-25T06:28:35.615Z,2.40
2018-01-25T06:31:02.751Z,2.60
2018-01-25T06:33:29.901Z,2.60
2018-01-25T06:35:57.044Z,2.50
2018-01-25T06:38:24.208Z,2.40
2018-01-25T06:40:51.307Z,2.40
2018-01-25T06:43:17.704Z,2.30
2018-01-25T06:45:44.108Z,2.60
2018-01-25T06:48:11.260Z,2.60
2018-01-25T06:50:38.370Z,2.50
2018-01-25T06:53:04.735Z,2.50
2018-01-25T06:55:31.114Z,2.50
2018-01-25T06:57:57.504Z,2.60
2018-01-25T07:00:24.647Z,3.00
2018-01-25T07:02:51.801Z,3.00
2018-01-25T07:05:18.937Z,2.90
2018-01-25T07:07:45.315Z,2.90
2018-01-25T07:10:11.742Z,3.10
2018-01-25T07:12:38.190Z,3.30
2018-01-25T07:15:04.626Z,3.00
2018-01-25T07:17:32.071Z,3.00
2018-01-25T07:19:58.545Z,3.10
2018-01-25T07:22:24.981Z,3.00
2018-01-25T07:24:51.454Z,3.10
2018-01-25T07:27:17.895Z,3.20
2018-01-25T07:29:44.330Z,3.20
2018-01-25T07:32:11.645Z,3.30
2018-01-25T07:34:39.563Z,3.30
2018-01-25T07:37:05.969Z,3.30
2018-01-25T07:39:33.124Z,3.30
2018-01-25T07:42:00.226Z,3.40
2018-01-25T07:44:26.631Z,3.40
2018-01-25T07:46:53.034Z,3.00
2018-01-25T07:49:20.155Z,3.00
2018-01-25T07:51:47.308Z,3.10
2018-01-25T07:54:13.897Z,3.10
2018-01-25T07:56:40.325Z,3.20
2018-01-25T07:59:06.740Z,2.80
2018-01-25T08:01:33.148Z,2.90
2018-01-25T08:03:59.532Z,3.20
2018-01-25T08:06:25.950Z,3.40
2018-01-25T08:08:52.370Z,3.20
2018-01-25T08:11:19.509Z,3.30
2018-01-25T08:13:46.642Z,3.00
2018-01-25T08:16:20.443Z,2.80
2018-01-25T08:18:46.880Z,2.80
2018-01-25T08:21:14.038Z,2.50
2018-01-25T08:23:41.188Z,2.80
2018-01-25T08:26:08.301Z,2.80
2018-01-25T08:28:34.664Z,2.80
2018-01-25T08:31:01.073Z,3.00
2018-01-25T08:33:27.492Z,3.10
2018-01-25T08:35:53.907Z,3.00
2018-01-25T08:38:20.297Z,3.00
2018-01-25T08:40:47.441Z,2.40
2018-01-25T08:43:13.832Z,2.40
2018-01-25T08:45:40.236Z,2.10
2018-01-25T08:48:06.647Z,2.20
2018-01-25T08:50:33.775Z,2.70
2018-01-25T08:53:00.173Z,2.70
2018-01-25T08:55:26.574Z,2.70
2018-01-25T08:57:53.714Z,2.70
2018-01-25T09:00:20.839Z,2.70
2018-01-25T09:02:47.195Z,2.70
2018-01-25T09:05:14.323Z,2.80
2018-01-25T09:07:41.466Z,2.90
2018-01-25T09:10:07.850Z,2.90
2018-01-25T09:12:34.231Z,3.30
2018-01-25T09:15:02.111Z,3.40
2018-01-25T09:17:29.270Z,3.50
2018-01-25T09:19:56.409Z,2.90
2018-01-25T09:22:22.794Z,2.90
2018-01-25T09:24:49.192Z,2.90
2018-01-25T09:27:16.345Z,3.30
2018-01-25T09:29:43.487Z,3.00
2018-01-25T09:32:10.606Z,2.90
2018-01-25T09:34:36.976Z,2.90
2018-01-25T09:37:04.085Z,2.90
2018-01-25T09:39:31.941Z,3.00
2018-01-25T09:41:58.327Z,3.00
2018-01-25T09:44:24.741Z,3.00
2018-01-25T09:46:51.862Z,2.70
2018-01-25T09:49:18.238Z,2.70
2018-01-25T09:51:44.635Z,2.90
2018-01-25T09:54:11.107Z,2.20
2018-01-25T09:56:38.221Z,1.80
2018-01-25T09:59:04.609Z,1.80
2018-01-25T10:01:30.995Z,1.60
2018-01-25T10:03:58.130Z,1.90
2018-01-25T10:06:26.047Z,2.20
2018-01-25T10:08:53.148Z,2.60
2018-01-25T10:11:19.554Z,2.60
2018-01-25T10:13:45.971Z,2.30
2018-01-25T10:16:12.377Z,2.30
2018-01-25T10:18:38.751Z,2.00
2018-01-25T10:21:05.193Z,2.00
2018-01-25T10:23:31.604Z,2.00
2018-01-25T10:25:58.030Z,1.90
2018-01-25T10:28:24.465Z,1.80
2018-01-25T10:30:50.870Z,2.00
2018-01-25T10:33:17.264Z,2.40
2018-01-25T10:35:43.639Z,2.90
2018-01-25T10:38:10.027Z,2.70
2018-01-25T10:40:36.409Z,3.10
2018-01-25T10:43:02.829Z,3.60
2018-01-25T10:45:29.995Z,3.90
2018-01-25T10:47:56.370Z,3.90
2018-01-25T10:50:22.786Z,3.60
2018-01-25T10:52:49.150Z,3.50
2018-01-25T10:55:16.321Z,3.40
2018-01-25T10:57:43.518Z,3.30
2018-01-25T11:00:09.878Z,3.30
2018-01-25T11:02:36.292Z,3.10
2018-01-25T11:05:02.695Z,3.10
2018-01-25T11:07:29.134Z,3.20
2018-01-25T11:09:55.527Z,3.60
2018-01-25T11:12:22.691Z,3.40
2018-01-25T11:14:49.088Z,3.40
2018-01-25T11:17:15.518Z,3.60
2018-01-25T11:19:41.895Z,3.30
2018-01-25T11:22:08.273Z,3.60
2018-01-25T11:24:34.640Z,3.40
2018-01-25T11:27:01.943Z,2.70
2018-01-25T11:29:28.338Z,2.70
2018-01-25T11:31:54.717Z,3.30
2018-01-25T11:34:21.086Z,3.20
2018-01-25T11:36:48.279Z,3.30
2018-01-25T11:39:14.677Z,3.40
2018-01-25T11:41:41.071Z,3.20
2018-01-25T11:44:07.491Z,3.20
2018-01-25T11:46:33.894Z,2.90
2018-01-25T11:49:00.414Z,2.70
2018-01-25T11:51:26.874Z,2.80
2018-01-25T11:53:53.274Z,2.90
2018-01-25T11:56:19.709Z,2.70
2018-01-25T11:58:46.123Z,2.80
2018-01-25T12:01:13.271Z,2.80
2018-01-25T12:03:40.436Z,2.10
2018-01-25T12:06:06.851Z,2.00
2018-01-25T12:08:33.274Z,2.10
2018-01-25T12:10:59.667Z,2.30
2018-01-25T12:13:26.093Z,2.70
2018-01-25T12:15:52.477Z,2.60
2018-01-25T12:18:18.896Z,3.00
2018-01-25T12:20:45.351Z,3.00
2018-01-25T12:23:11.730Z,2.70
2018-01-25T12:25:38.102Z,2.60
2018-01-25T12:28:04.496Z,2.40
2018-01-25T12:30:30.895Z,2.80
2018-01-25T12:32:57.270Z,2.90
2018-01-25T12:35:23.629Z,2.70
2018-01-25T12:37:50.003Z,3.10
2018-01-25T12:40:16.393Z,3.20
2018-01-25T12:42:42.775Z,3.20
2018-01-25T12:45:09.168Z,3.50
2018-01-25T12:47:36.278Z,3.40
2018-01-25T12:50:02.711Z,3.40
2018-01-25T12:52:29.082Z,3.50
2018-01-25T12:54:56.270Z,3.20
2018-01-25T12:57:22.669Z,3.20
2018-01-25T12:59:49.808Z,3.30
2018-01-25T13:02:16.998Z,3.10
2018-01-25T13:04:43.355Z,3.00
2018-01-25T13:07:09.736Z,2.80
2018-01-25T13:09:36.858Z,3.20
2018-01-25T13:12:03.247Z,3.20
2018-01-25T13:14:29.661Z,3.20
2018-01-25T13:16:56.057Z,2.90
2018-01-25T13:19:23.226Z,3.10
2018-01-25T13:21:50.354Z,3.00
2018-01-25T13:24:16.726Z,2.90
2018-01-25T13:26:43.097Z,2.90
2018-01-25T13:29:09.513Z,2.90
2018-01-25T13:31:35.976Z,2.80
2018-01-25T13:34:02.414Z,2.80
2018-01-25T13:36:29.565Z,3.10
2018-01-25T13:38:55.957Z,3.10
2018-01-25T13:41:22.324Z,3.10
2018-01-25T13:43:50.206Z,3.10
2018-01-25T13:46:16.670Z,3.20
2018-01-25T13:48:43.082Z,2.90
2018-01-25T13:51:10.234Z,2.90
2018-01-25T13:53:37.415Z,3.20
2018-01-25T13:56:03.834Z,3.20
2018-01-25T13:58:30.975Z,2.70
2018-01-25T14:00:57.379Z,2.70
2018-01-25T14:03:23.790Z,2.70
2018-01-25T14:05:50.180Z,3.00
2018-01-25T14:08:16.608Z,3.10
2018-01-25T14:10:43.030Z,3.20
2018-01-25T14:13:09.433Z,3.10
2018-01-25T14:15:35.882Z,3.10
2018-01-25T14:18:02.286Z,3.00
2018-01-25T14:20:28.726Z,3.00
2018-01-25T14:22:55.132Z,2.90
2018-01-25T14:25:21.577Z,3.10
2018-01-25T14:27:47.994Z,3.10
2018-01-25T14:30:14.440Z,2.90
2018-01-25T14:32:40.822Z,2.50
2018-01-25T14:35:07.962Z,2.20
2018-01-25T14:37:35.129Z,2.30
2018-01-25T14:40:02.322Z,2.10
2018-01-25T14:42:28.817Z,2.00
2018-01-25T14:44:55.269Z,1.70
2018-01-25T14:47:21.703Z,1.70
2018-01-25T14:49:48.962Z,2.10
2018-01-25T14:52:15.416Z,2.10
2018-01-25T14:54:41.852Z,2.60
2018-01-25T14:57:08.338Z,2.80
2018-01-25T14:59:34.787Z,2.70
2018-01-25T15:02:01.205Z,2.80
2018-01-25T15:04:27.655Z,2.90
2018-01-25T15:06:54.136Z,2.80
2018-01-25T15:09:20.584Z,2.60
2018-01-25T15:11:47.038Z,2.50
2018-01-25T15:14:13.481Z,2.80
2018-01-25T15:16:40.035Z,3.00
2018-01-25T15:19:06.496Z,2.40
2018-01-25T15:21:32.921Z,2.20
2018-01-25T15:23:59.365Z,2.20
2018-01-25T15:26:26.549Z,2.80
2018-01-25T15:28:52.996Z,2.80
2018-01-25T15:31:19.449Z,2.90
2018-01-25T15:33:45.893Z,2.90
2018-01-25T15:36:12.438Z,2.70
2018-01-25T15:38:38.898Z,3.00
2018-01-25T15:41:05.365Z,3.20
2018-01-25T15:43:31.812Z,3.30
2018-01-25T15:45:58.236Z,3.00
2018-01-25T15:48:24.679Z,2.90
2018-01-25T15:50:51.105Z,3.20
2018-01-25T15:53:17.528Z,3.10
2018-01-25T15:55:43.939Z,2.80
2018-01-25T15:58:11.069Z,3.00
2018-01-25T16:00:37.533Z,2.90
2018-01-25T16:03:04.685Z,2.90
2018-01-25T16:05:31.224Z,2.90
2018-01-25T16:07:57.611Z,3.20
2018-01-25T16:10:24.026Z,3.50
2018-01-25T16:12:50.443Z,3.10
2018-01-25T16:15:16.848Z,3.30
2018-01-25T16:17:43.237Z,3.40
2018-01-25T16:20:09.642Z,3.50
2018-01-25T16:22:36.148Z,3.60
2018-01-25T16:25:03.297Z,3.60
2018-01-25T16:27:29.729Z,3.50
2018-01-25T16:29:56.873Z,3.60
2018-01-25T16:32:23.986Z,3.40
2018-01-25T16:34:50.460Z,3.30
2018-01-25T16:37:16.858Z,3.00
2018-01-25T16:39:43.396Z,2.90
2018-01-25T16:42:09.893Z,3.00
2018-01-25T16:44:36.355Z,3.00
2018-01-25T16:47:02.775Z,3.10
2018-01-25T16:49:29.202Z,3.40
2018-01-25T16:51:55.606Z,3.70
2018-01-25T16:54:22.031Z,3.80
2018-01-25T16:56:48.459Z,3.60
2018-01-25T16:59:15.611Z,3.20
2018-01-25T17:01:42.010Z,3.10
2018-01-25T17:04:08.433Z,3.00
2018-01-25T17:06:36.325Z,3.70
2018-01-25T17:09:03.518Z,3.60
2018-01-25T17:11:29.966Z,3.60
2018-01-25T17:13:56.749Z,3.70
2018-01-25T17:16:23.924Z,3.90
2018-01-25T17:18:50.348Z,3.90
2018-01-25T17:21:17.513Z,3.40
2018-01-25T17:23:43.894Z,3.40
2018-01-25T17:26:10.321Z,3.60
2018-01-25T17:28:37.540Z,3.60
2018-01-25T17:31:03.982Z,3.60
2018-01-25T17:33:30.403Z,3.30
2018-01-25T17:35:56.810Z,3.30
2018-01-25T17:38:23.211Z,3.50
2018-01-25T17:40:49.600Z,3.40
2018-01-25T17:43:16.015Z,3.60
2018-01-25T17:45:42.430Z,3.60
2018-01-25T17:48:09.598Z,3.30
2018-01-25T17:50:36.033Z,3.20
2018-01-25T17:53:02.459Z,3.00
2018-01-25T17:55:28.859Z,3.30
2018-01-25T17:57:55.286Z,3.70
2018-01-25T18:00:23.187Z,4.10
2018-01-25T18:02:49.633Z,4.10
2018-01-25T18:05:16.039Z,4.30
2018-01-25T18:07:43.226Z,4.20
2018-01-25T18:10:09.612Z,4.20
2018-01-25T18:12:36.768Z,4.40
2018-01-25T18:15:03.950Z,4.30
2018-01-25T18:17:30.448Z,4.30
2018-01-25T18:19:56.847Z,4.30
2018-01-25T18:22:23.852Z,4.40
2018-01-25T18:24:50.303Z,4.30
2018-01-25T18:27:16.693Z,4.30
2018-01-25T18:29:43.066Z,4.20
2018-01-25T18:32:09.472Z,4.00
2018-01-25T18:34:36.691Z,3.80
2018-01-25T18:37:03.948Z,3.60
2018-01-25T18:39:31.131Z,3.80
2018-01-25T18:41:58.266Z,4.00
2018-01-25T18:44:25.448Z,4.00
2018-01-25T18:46:51.965Z,3.90
2018-01-25T18:49:18.368Z,3.70
2018-01-25T18:51:44.769Z,3.60
2018-01-25T18:54:11.172Z,3.90
2018-01-25T18:56:37.593Z,4.10
2018-01-25T18:59:04.027Z,4.20
2018-01-25T19:01:30.440Z,4.10
2018-01-25T19:03:57.610Z,3.90
2018-01-25T19:06:24.825Z,3.90
2018-01-25T19:08:51.291Z,3.80
2018-01-25T19:11:17.699Z,3.50
2018-01-25T19:13:44.175Z,3.70
2018-01-25T19:16:10.619Z,3.70
2018-01-25T19:18:37.025Z,3.60
2018-01-25T19:21:03.439Z,3.60
2018-01-25T19:23:30.592Z,3.70
2018-01-25T19:25:57.789Z,3.70
2018-01-25T19:28:24.191Z,3.70
2018-01-25T19:30:50.607Z,3.70
2018-01-25T19:33:17.789Z,3.80
2018-01-25T19:35:44.212Z,3.80
2018-01-25T19:38:10.609Z,3.50
2018-01-25T19:40:37.802Z,3.70
2018-01-25T19:43:04.209Z,3.70
2018-01-25T19:45:31.368Z,3.80
2018-01-25T19:47:57.809Z,3.80
2018-01-25T19:50:24.231Z,3.80
2018-01-25T19:52:51.393Z,4.00
2018-01-25T19:55:17.798Z,3.90
2018-01-25T19:57:45.005Z,3.40
2018-01-25T20:00:11.408Z,3.40
2018-01-25T20:02:37.815Z,3.60
2018-01-25T20:05:04.990Z,3.60
2018-01-25T20:07:31.424Z,3.60
2018-01-25T20:09:58.806Z,3.60
2018-01-25T20:12:25.204Z,3.40
2018-01-25T20:14:51.613Z,3.50
2018-01-25T20:17:18.746Z,3.20
2018-01-25T20:19:45.147Z,3.20
2018-01-25T20:22:11.549Z,3.10
2018-01-25T20:24:38.727Z,3.00
2018-01-25T20:27:05.147Z,3.00
2018-01-25T20:29:31.537Z,2.90
2018-01-25T20:31:57.943Z,3.10
2018-01-25T20:34:24.353Z,2.70
2018-01-25T20:36:50.766Z,2.80
2018-01-25T20:39:17.184Z,2.70
2018-01-25T20:41:43.627Z,3.10
2018-01-25T20:44:10.367Z,3.20
2018-01-25T20:46:37.516Z,2.90
2018-01-25T20:49:04.656Z,2.70
2018-01-25T20:51:31.802Z,2.40
2018-01-25T20:53:58.953Z,2.20
2018-01-25T20:56:26.106Z,2.60
2018-01-25T20:58:53.265Z,2.90
2018-01-25T21:01:20.397Z,3.00
2018-01-25T21:03:47.543Z,3.30
2018-01-25T21:06:14.687Z,3.20
2018-01-25T21:08:41.124Z,3.20
2018-01-25T21:11:08.275Z,3.00
2018-01-25T21:13:34.665Z,3.00
2018-01-25T21:16:01.152Z,2.90
2018-01-25T21:18:28.311Z,2.60
2018-01-25T21:20:54.703Z,2.50
2018-01-25T21:23:21.074Z,2.60
2018-01-25T21:25:48.214Z,2.90
2018-01-25T21:28:15.373Z,2.40
2018-01-25T21:30:41.781Z,2.40
2018-01-25T21:33:08.187Z,2.20
2018-01-25T21:35:34.586Z,2.40
2018-01-25T21:38:00.970Z,2.60
2018-01-25T21:40:27.371Z,2.20
2018-01-25T21:42:53.794Z,2.00
2018-01-25T21:45:20.211Z,2.20
2018-01-25T21:47:46.661Z,2.40
2018-01-25T21:50:13.112Z,2.20
2018-01-25T21:52:39.565Z,1.90
2018-01-25T21:55:05.953Z,2.10
2018-01-25T21:57:32.368Z,2.10
2018-01-25T21:59:58.863Z,2.30
2018-01-25T22:02:25.258Z,2.10
2018-01-25T22:04:51.661Z,2.30
2018-01-25T22:07:18.269Z,2.40
2018-01-25T22:09:44.673Z,2.70
2018-01-25T22:12:11.058Z,2.80
2018-01-25T22:14:38.208Z,2.90
2018-01-25T22:17:05.378Z,2.80
2018-01-25T22:19:31.910Z,2.80
2018-01-25T22:21:58.383Z,2.70
2018-01-25T22:24:24.782Z,2.60
2018-01-25T22:26:51.175Z,2.80
2018-01-25T22:29:18.310Z,2.50
2018-01-25T22:31:44.728Z,2.40
2018-01-25T22:34:11.141Z,2.40
2018-01-25T22:36:37.575Z,2.50
2018-01-25T22:39:04.006Z,2.50
2018-01-25T22:41:30.439Z,2.70
2018-01-25T22:43:56.862Z,2.90
2018-01-25T22:46:23.287Z,2.80
2018-01-25T22:48:49.702Z,2.80
2018-01-25T22:51:16.840Z,2.80
2018-01-25T22:53:43.979Z,2.90
2018-01-25T22:56:10.374Z,2.80
2018-01-25T22:58:36.791Z,3.00
2018-01-25T23:01:03.202Z,2.80
2018-01-25T23:03:30.343Z,2.90
2018-01-25T23:05:57.497Z,3.00
2018-01-25T23:08:23.952Z,2.90
2018-01-25T23:10:50.344Z,2.80
2018-01-25T23:13:17.470Z,3.10
2018-01-25T23:15:43.878Z,3.10
2018-01-25T23:18:10.276Z,3.10
2018-01-25T23:20:37.446Z,3.10
2018-01-25T23:23:03.927Z,3.10
2018-01-25T23:25:30.336Z,3.20
2018-01-25T23:27:56.732Z,3.00
2018-01-25T23:30:23.872Z,2.60
2018-01-25T23:32:51.006Z,2.60
2018-01-25T23:35:18.190Z,2.70
2018-01-25T23:37:44.642Z,2.70
2018-01-25T23:40:11.077Z,3.00
2018-01-25T23:42:37.482Z,2.60
2018-01-25T23:45:04.630Z,2.70
2018-01-25T23:47:31.028Z,2.70
2018-01-25T23:49:57.440Z,1.90
2018-01-25T23:52:23.835Z,1.70
2018-01-25T23:54:50.510Z,1.80
2018-01-25T23:57:16.917Z,1.70
2018-01-25T23:59:43.313Z,1.70
